createdAt,value
2022-12-01T00:01:17.841Z,8.30
2022-12-01T00:03:44.379Z,7.85
2022-12-01T00:06:17.793Z,8.55
2022-12-01T00:09:06.190Z,9.55
2022-12-01T00:11:34.258Z,7.80
2022-12-01T00:14:01.426Z,8.38
2022-12-01T00:16:28.127Z,8.65
2022-12-01T00:18:54.882Z,7.97
2022-12-01T00:21:23.680Z,8.52
2022-12-01T00:23:52.978Z,8.00
2022-12-01T00:26:20.790Z,8.63
2022-12-01T00:28:52.420Z,8.45
2022-12-01T00:31:19.830Z,8.27
2022-12-01T00:33:46.385Z,7.97
2022-12-01T00:36:13.599Z,7.57
2022-12-01T00:38:40.108Z,8.75
2022-12-01T00:41:06.547Z,8.38
2022-12-01T00:43:33.078Z,8.45
2022-12-01T00:45:59.684Z,8.00
2022-12-01T00:48:26.178Z,7.30
2022-12-01T00:50:54.065Z,8.57
2022-12-01T00:53:21.073Z,8.43
2022-12-01T00:55:47.576Z,8.82
2022-12-01T00:58:14.024Z,8.45
2022-12-01T01:00:40.584Z,8.35
2022-12-01T01:03:07.068Z,8.63
2022-12-01T01:05:37.929Z,7.70
2022-12-01T01:08:09.202Z,8.07
2022-12-01T01:10:46.896Z,8.48
2022-12-01T01:13:14.410Z,9.15
2022-12-01T01:15:41.477Z,9.13
2022-12-01T01:18:09.701Z,8.18
2022-12-01T01:20:36.229Z,9.38
2022-12-01T01:23:02.660Z,9.23
2022-12-01T01:25:29.043Z,8.63
2022-12-01T01:27:55.435Z,8.95
2022-12-01T01:30:21.995Z,9.50
2022-12-01T01:32:48.475Z,8.80
2022-12-01T01:35:14.994Z,9.90
2022-12-01T01:37:41.600Z,8.93
2022-12-01T01:40:08.814Z,8.77
2022-12-01T01:42:35.312Z,8.93
2022-12-01T01:45:01.807Z,9.77
2022-12-01T01:47:32.898Z,8.95
2022-12-01T01:50:06.577Z,8.98
2022-12-01T01:52:35.967Z,8.73
2022-12-01T01:55:02.874Z,9.70
2022-12-01T01:57:33.288Z,8.75
2022-12-01T02:00:08.000Z,9.10
2022-12-01T02:02:40.735Z,9.52
2022-12-01T02:05:11.170Z,8.77
2022-12-01T02:07:39.314Z,9.50
2022-12-01T02:10:09.029Z,9.43
2022-12-01T02:13:09.736Z,9.90
2022-12-01T02:15:44.884Z,9.48
2022-12-01T02:18:41.621Z,9.15
2022-12-01T02:21:13.837Z,10.40
2022-12-01T02:24:13.888Z,10.32
2022-12-01T02:26:49.680Z,9.35
2022-12-01T02:29:33.626Z,9.35
2022-12-01T02:32:25.180Z,9.10
2022-12-01T02:35:18.872Z,10.15
2022-12-01T02:38:12.521Z,10.98
2022-12-01T02:41:01.648Z,9.75
2022-12-01T02:43:43.279Z,9.77
2022-12-01T02:46:15.130Z,10.32
2022-12-01T02:48:46.810Z,9.98
2022-12-01T02:51:24.894Z,10.43
2022-12-01T02:53:52.553Z,10.10
2022-12-01T02:56:21.823Z,10.32
2022-12-01T02:58:48.283Z,9.88
2022-12-01T03:01:46.231Z,10.98
2022-12-01T03:04:40.072Z,10.40
2022-12-01T03:07:37.641Z,10.45
2022-12-01T03:10:20.647Z,10.05
2022-12-01T03:13:05.272Z,10.43
2022-12-01T03:16:04.681Z,11.25
2022-12-01T03:18:47.057Z,10.32
2022-12-01T03:21:38.270Z,11.48
2022-12-01T03:24:14.120Z,12.23
2022-12-01T03:26:44.604Z,11.38
2022-12-01T03:29:18.080Z,12.30
2022-12-01T03:34:19.984Z,10.10
2022-12-01T03:36:51.875Z,12.38
2022-12-01T03:39:23.716Z,10.52
2022-12-01T03:42:15.674Z,10.68
2022-12-01T03:44:49.575Z,11.05
2022-12-01T03:47:20.909Z,11.05
2022-12-01T03:49:50.892Z,11.70
2022-12-01T03:52:33.511Z,11.93
2022-12-01T03:55:14.372Z,11.35
2022-12-01T03:58:02.362Z,11.35
2022-12-01T04:00:31.186Z,11.35
2022-12-01T04:02:59.670Z,12.85
2022-12-01T04:05:26.881Z,11.23
2022-12-01T04:07:53.606Z,10.80
2022-12-01T04:10:20.247Z,12.77
2022-12-01T04:12:46.659Z,12.65
2022-12-01T04:15:14.509Z,12.50
2022-12-01T04:17:45.149Z,12.25
2022-12-01T04:20:14.292Z,11.38
2022-12-01T04:22:41.449Z,11.57
2022-12-01T04:25:08.648Z,12.00
2022-12-01T04:27:35.789Z,12.63
2022-12-01T04:30:03.043Z,12.82
2022-12-01T04:32:29.439Z,12.32
2022-12-01T04:34:55.843Z,12.45
2022-12-01T04:37:22.333Z,11.98
2022-12-01T04:39:49.120Z,12.20
2022-12-01T04:42:15.814Z,12.52
2022-12-01T04:44:42.277Z,10.93
2022-12-01T04:47:08.857Z,12.82
2022-12-01T04:49:37.151Z,11.85
2022-12-01T04:52:03.843Z,12.80
2022-12-01T04:54:30.310Z,12.60
2022-12-01T04:56:56.777Z,12.60
2022-12-01T04:59:23.222Z,11.98
2022-12-01T05:01:49.670Z,12.52
2022-12-01T05:04:16.297Z,13.52
2022-12-01T05:06:43.354Z,12.75
2022-12-01T05:09:17.119Z,13.52
2022-12-01T05:11:44.859Z,13.10
2022-12-01T05:14:11.349Z,11.98
2022-12-01T05:16:37.828Z,12.18
2022-12-01T05:19:24.797Z,13.23
2022-12-01T05:21:52.009Z,12.05
2022-12-01T05:24:19.550Z,13.82
2022-12-01T05:26:46.320Z,14.30
2022-12-01T05:29:13.944Z,13.13
2022-12-01T05:31:41.077Z,14.05
2022-12-01T05:34:08.428Z,12.82
2022-12-01T05:36:34.921Z,12.85
2022-12-01T05:39:01.454Z,12.25
2022-12-01T05:41:27.899Z,11.85
2022-12-01T05:43:54.362Z,12.60
2022-12-01T05:46:20.870Z,12.48
2022-12-01T05:48:47.389Z,12.80
2022-12-01T05:51:16.037Z,12.93
2022-12-01T05:53:43.480Z,12.95
2022-12-01T05:56:10.014Z,12.75
2022-12-01T05:58:36.533Z,11.70
2022-12-01T06:01:03.240Z,12.40
2022-12-01T06:03:29.690Z,13.10
2022-12-01T06:05:56.213Z,13.77
2022-12-01T06:08:22.630Z,12.40
2022-12-01T06:10:49.078Z,13.10
2022-12-01T06:13:15.558Z,13.43
2022-12-01T06:15:42.312Z,12.85
2022-12-01T06:18:09.301Z,11.13
2022-12-01T06:20:35.951Z,11.57
2022-12-01T06:23:02.740Z,12.52
2022-12-01T06:25:29.228Z,13.52
2022-12-01T06:27:59.211Z,12.93
2022-12-01T06:30:26.061Z,12.80
2022-12-01T06:32:52.651Z,12.75
2022-12-01T06:35:19.651Z,12.23
2022-12-01T06:37:46.134Z,12.85
2022-12-01T06:40:12.798Z,12.68
2022-12-01T06:42:39.211Z,11.85
2022-12-01T06:45:06.068Z,12.60
2022-12-01T06:47:32.500Z,12.68
2022-12-01T06:49:59.034Z,12.57
2022-12-01T06:52:25.466Z,12.20
2022-12-01T06:54:51.918Z,12.20
2022-12-01T06:57:18.724Z,12.18
2022-12-01T06:59:45.338Z,12.70
2022-12-01T07:02:12.172Z,12.85
2022-12-01T07:04:38.825Z,11.82
2022-12-01T07:07:06.354Z,12.13
2022-12-01T07:09:32.896Z,12.73
2022-12-01T07:11:59.363Z,11.95
2022-12-01T07:14:27.055Z,12.15
2022-12-01T07:16:53.808Z,11.82
2022-12-01T07:19:20.369Z,12.25
2022-12-01T07:21:46.885Z,11.98
2022-12-01T07:24:13.847Z,12.05
2022-12-01T07:26:41.297Z,11.30
2022-12-01T07:29:09.189Z,11.80
2022-12-01T07:31:36.735Z,12.02
2022-12-01T07:34:03.514Z,11.95
2022-12-01T07:36:30.028Z,11.38
2022-12-01T07:38:56.662Z,12.25
2022-12-01T07:41:23.218Z,12.25
2022-12-01T07:43:50.042Z,11.35
2022-12-01T07:46:27.351Z,12.52
2022-12-01T07:48:55.716Z,10.88
2022-12-01T07:51:23.507Z,11.77
2022-12-01T07:53:51.056Z,11.77
2022-12-01T07:56:19.093Z,11.52
2022-12-01T07:58:45.649Z,11.77
2022-12-01T08:01:17.176Z,10.80
2022-12-01T08:03:43.838Z,11.80
2022-12-01T08:06:11.710Z,11.40
2022-12-01T08:08:39.769Z,12.45
2022-12-01T08:11:10.080Z,11.18
2022-12-01T08:13:36.608Z,11.80
2022-12-01T08:16:05.395Z,11.77
2022-12-01T08:18:35.475Z,11.18
2022-12-01T08:21:01.956Z,12.15
2022-12-01T08:23:28.436Z,12.40
2022-12-01T08:25:55.044Z,12.10
2022-12-01T08:28:21.510Z,13.00
2022-12-01T08:30:48.104Z,12.68
2022-12-01T08:33:15.856Z,11.73
2022-12-01T08:35:42.454Z,12.13
2022-12-01T08:38:09.324Z,11.85
2022-12-01T08:40:35.827Z,12.18
2022-12-01T08:43:02.405Z,11.18
2022-12-01T08:45:28.922Z,10.57
2022-12-01T08:47:58.988Z,11.90
2022-12-01T08:50:27.233Z,12.32
2022-12-01T08:52:54.255Z,10.55
2022-12-01T08:55:22.227Z,12.88
2022-12-01T08:57:48.706Z,11.20
2022-12-01T09:00:16.177Z,10.55
2022-12-01T09:02:42.643Z,10.70
2022-12-01T09:05:09.722Z,11.35
2022-12-01T09:07:36.248Z,10.65
2022-12-01T09:10:02.747Z,10.82
2022-12-01T09:12:30.181Z,12.15
2022-12-01T09:14:56.768Z,12.70
2022-12-01T09:17:23.819Z,11.35
2022-12-01T09:19:50.497Z,11.48
2022-12-01T09:22:17.321Z,10.90
2022-12-01T09:24:43.921Z,11.90
2022-12-01T09:27:10.451Z,12.32
2022-12-01T09:29:36.958Z,12.77
2022-12-01T09:32:03.487Z,12.40
2022-12-01T09:34:30.062Z,13.73
2022-12-01T09:36:57.623Z,14.75
2022-12-01T09:39:24.666Z,12.85
2022-12-01T09:41:58.433Z,13.60
2022-12-01T09:44:43.901Z,11.50
2022-12-01T09:47:21.928Z,11.82
2022-12-01T09:50:24.016Z,10.98
2022-12-01T09:53:03.081Z,12.77
2022-12-01T09:55:31.587Z,12.02
2022-12-01T09:58:00.961Z,12.27
2022-12-01T10:00:31.627Z,11.57
2022-12-01T10:03:13.911Z,12.02
2022-12-01T10:06:18.561Z,13.15
2022-12-01T10:11:27.505Z,10.75
2022-12-01T10:13:54.021Z,12.07
2022-12-01T10:16:28.793Z,12.18
2022-12-01T10:19:18.192Z,11.02
2022-12-01T10:21:55.466Z,11.65
2022-12-01T10:24:31.649Z,12.30
2022-12-01T10:27:16.251Z,12.85
2022-12-01T10:29:58.656Z,12.63
2022-12-01T10:32:53.911Z,11.95
2022-12-01T10:35:26.907Z,12.20
2022-12-01T10:38:07.239Z,10.85
2022-12-01T10:40:35.268Z,11.55
2022-12-01T10:43:02.399Z,11.23
2022-12-01T10:45:33.836Z,11.90
2022-12-01T10:48:20.642Z,12.50
2022-12-01T10:50:54.922Z,10.93
2022-12-01T10:53:24.445Z,11.27
2022-12-01T10:55:58.261Z,11.68
2022-12-01T10:58:24.686Z,12.13
2022-12-01T11:01:16.884Z,13.18
2022-12-01T11:03:43.875Z,11.55
2022-12-01T11:06:10.850Z,12.25
2022-12-01T11:08:45.490Z,13.40
2022-12-01T11:11:34.264Z,12.68
2022-12-01T11:14:05.172Z,11.95
2022-12-01T11:16:33.859Z,11.82
2022-12-01T11:19:28.224Z,12.25
2022-12-01T11:21:57.770Z,12.65
2022-12-01T11:24:30.740Z,13.48
2022-12-01T11:26:59.187Z,11.90
2022-12-01T11:29:35.993Z,13.00
2022-12-01T11:32:14.318Z,12.35
2022-12-01T11:34:40.805Z,11.73
2022-12-01T11:37:15.257Z,12.93
2022-12-01T11:39:44.499Z,12.60
2022-12-01T11:42:13.649Z,12.40
2022-12-01T11:44:51.970Z,12.57
2022-12-01T11:47:23.749Z,12.48
2022-12-01T11:50:02.900Z,12.50
2022-12-01T11:52:32.071Z,12.98
2022-12-01T11:57:52.362Z,13.10
2022-12-01T12:00:20.582Z,12.48
2022-12-01T12:02:56.064Z,12.05
2022-12-01T12:05:42.239Z,14.07
2022-12-01T12:08:20.802Z,12.95
2022-12-01T12:10:47.231Z,12.13
2022-12-01T12:13:16.399Z,12.65
2022-12-01T12:16:01.090Z,12.85
2022-12-01T12:18:46.247Z,12.57
2022-12-01T12:21:41.277Z,12.13
2022-12-01T12:24:13.523Z,12.38
2022-12-01T12:27:10.865Z,12.68
2022-12-01T12:29:46.068Z,12.77
2022-12-01T12:32:54.644Z,13.05
2022-12-01T12:35:39.913Z,12.50
2022-12-01T12:38:40.574Z,12.07
2022-12-01T12:41:22.192Z,12.43
2022-12-01T12:44:10.348Z,12.27
2022-12-01T12:47:06.885Z,12.45
2022-12-01T12:49:52.174Z,12.13
2022-12-01T12:52:24.021Z,13.30
2022-12-01T12:54:58.927Z,14.48
2022-12-01T12:57:35.808Z,13.73
2022-12-01T13:00:13.578Z,13.45
2022-12-01T13:03:10.805Z,12.50
2022-12-01T13:05:57.517Z,14.07
2022-12-01T13:08:59.181Z,18.63
2022-12-01T13:11:31.935Z,15.85
2022-12-01T13:14:07.343Z,15.90
2022-12-01T13:16:37.333Z,13.50
2022-12-01T13:19:19.360Z,13.70
2022-12-01T13:21:49.129Z,13.77
2022-12-01T13:24:25.079Z,13.57
2022-12-01T13:26:56.906Z,15.05
2022-12-01T13:29:25.840Z,13.32
2022-12-01T13:31:54.456Z,14.02
2022-12-01T13:34:38.391Z,14.18
2022-12-01T13:37:05.310Z,14.25
2022-12-01T13:39:35.749Z,13.88
2022-12-01T13:42:07.060Z,13.27
2022-12-01T13:44:43.145Z,12.85
2022-12-01T13:47:12.655Z,13.82
2022-12-01T13:49:46.148Z,12.75
2022-12-01T13:55:08.686Z,13.00
2022-12-01T13:58:13.129Z,12.63
2022-12-01T14:03:12.813Z,12.18
2022-12-01T14:05:42.225Z,12.82
2022-12-01T14:08:23.406Z,12.13
2022-12-01T14:11:29.713Z,12.18
2022-12-01T14:14:12.168Z,13.00
2022-12-01T14:16:47.948Z,12.95
2022-12-01T14:20:08.241Z,12.57
2022-12-01T14:22:45.475Z,12.45
2022-12-01T14:25:20.787Z,12.77
2022-12-01T14:27:50.614Z,12.93
2022-12-01T14:30:45.880Z,12.98
2022-12-01T14:33:44.966Z,12.50
2022-12-01T14:36:26.949Z,11.80
2022-12-01T14:38:59.598Z,12.25
2022-12-01T14:41:46.759Z,12.10
2022-12-01T14:44:39.588Z,13.05
2022-12-01T14:47:22.991Z,12.40
2022-12-01T14:50:12.131Z,13.82
2022-12-01T14:52:43.519Z,12.65
2022-12-01T14:55:18.192Z,13.18
2022-12-01T14:57:52.409Z,12.40
2022-12-01T15:00:24.317Z,12.55
2022-12-01T15:03:14.137Z,14.35
2022-12-01T15:05:43.502Z,13.27
2022-12-01T15:08:40.898Z,12.25
2022-12-01T15:11:25.384Z,12.43
2022-12-01T15:13:54.508Z,12.48
2022-12-01T15:16:23.795Z,12.65
2022-12-01T15:18:50.764Z,13.00
2022-12-01T15:21:21.992Z,12.23
2022-12-01T15:24:00.435Z,14.25
2022-12-01T15:26:37.218Z,12.57
2022-12-01T15:29:16.679Z,12.88
2022-12-01T15:31:47.517Z,12.45
2022-12-01T15:34:18.244Z,13.27
2022-12-01T15:36:45.630Z,12.40
2022-12-01T15:39:30.357Z,14.10
2022-12-01T15:41:57.037Z,11.45
2022-12-01T15:44:28.448Z,12.50
2022-12-01T15:46:55.148Z,11.75
2022-12-01T15:49:29.268Z,13.05
2022-12-01T15:52:05.739Z,11.98
2022-12-01T15:54:32.585Z,12.20
2022-12-01T15:56:59.773Z,12.48
2022-12-01T15:59:31.183Z,12.35
2022-12-01T16:01:58.459Z,12.45
2022-12-01T16:04:28.338Z,11.63
2022-12-01T16:07:09.937Z,11.70
2022-12-01T16:09:59.724Z,11.88
2022-12-01T16:12:32.989Z,12.65
2022-12-01T16:15:06.865Z,12.32
2022-12-01T16:17:51.285Z,11.40
2022-12-01T16:20:21.702Z,11.75
2022-12-01T16:22:56.720Z,12.18
2022-12-01T16:25:39.792Z,13.05
2022-12-01T16:28:17.289Z,11.88
2022-12-01T16:30:43.759Z,13.13
2022-12-01T16:33:17.115Z,12.88
2022-12-01T16:35:44.032Z,12.70
2022-12-01T16:38:16.221Z,12.82
2022-12-01T16:40:43.515Z,13.07
2022-12-01T16:43:21.004Z,12.65
2022-12-01T16:45:52.760Z,11.70
2022-12-01T16:48:20.390Z,13.32
2022-12-01T16:50:48.204Z,13.18
2022-12-01T16:53:14.711Z,12.85
2022-12-01T16:55:54.384Z,11.63
2022-12-01T16:58:21.175Z,13.60
2022-12-01T17:00:52.517Z,13.90
2022-12-01T17:03:24.412Z,12.43
2022-12-01T17:05:51.727Z,13.80
2022-12-01T17:08:18.833Z,12.32
2022-12-01T17:10:49.504Z,12.68
2022-12-01T17:13:16.800Z,13.40
2022-12-01T17:15:45.516Z,19.10
2022-12-01T17:18:13.202Z,17.00
2022-12-01T17:20:39.775Z,16.20
2022-12-01T17:23:06.434Z,13.88
2022-12-01T17:25:33.052Z,13.77
2022-12-01T17:27:59.710Z,14.13
2022-12-01T17:30:26.568Z,13.80
2022-12-01T17:32:52.993Z,13.43
2022-12-01T17:35:19.450Z,13.65
2022-12-01T17:37:45.870Z,14.15
2022-12-01T17:40:16.257Z,13.52
2022-12-01T17:42:46.955Z,13.20
2022-12-01T17:45:17.514Z,13.35
2022-12-01T17:47:43.965Z,13.60
2022-12-01T17:50:10.778Z,14.95
2022-12-01T17:52:37.334Z,12.90
2022-12-01T17:55:04.341Z,13.35
2022-12-01T17:57:30.966Z,14.00
2022-12-01T17:59:57.430Z,13.52
2022-12-01T18:02:24.061Z,13.95
2022-12-01T18:04:51.008Z,14.50
2022-12-01T18:07:17.667Z,13.73
2022-12-01T18:09:44.062Z,14.60
2022-12-01T18:12:10.842Z,13.68
2022-12-01T18:14:38.265Z,14.82
2022-12-01T18:17:05.572Z,15.23
2022-12-01T18:19:32.030Z,13.30
2022-12-01T18:21:58.514Z,13.35
2022-12-01T18:24:24.986Z,14.27
2022-12-01T18:26:51.547Z,14.00
2022-12-01T18:29:25.872Z,14.73
2022-12-01T18:31:56.879Z,14.57
2022-12-01T18:34:23.849Z,14.73
2022-12-01T18:36:50.349Z,15.68
2022-12-01T18:39:16.891Z,15.07
2022-12-01T18:41:43.802Z,14.93
2022-12-01T18:44:10.398Z,15.60
2022-12-01T18:46:37.008Z,15.32
2022-12-01T18:49:04.689Z,16.77
2022-12-01T18:51:33.440Z,15.75
2022-12-01T18:54:01.673Z,14.25
2022-12-01T18:56:28.838Z,14.57
2022-12-01T18:58:56.362Z,15.57
2022-12-01T19:01:37.328Z,14.68
2022-12-01T19:04:05.687Z,14.73
2022-12-01T19:06:34.299Z,14.43
2022-12-01T19:09:03.523Z,15.25
2022-12-01T19:11:30.212Z,15.30
2022-12-01T19:13:57.653Z,15.25
2022-12-01T19:16:24.314Z,14.85
2022-12-01T19:18:51.158Z,14.65
2022-12-01T19:21:19.581Z,15.05
2022-12-01T19:23:47.313Z,15.07
2022-12-01T19:26:17.661Z,16.33
2022-12-01T19:28:48.127Z,15.13
2022-12-01T19:31:17.105Z,15.63
2022-12-01T19:33:43.632Z,15.43
2022-12-01T19:36:12.314Z,14.57
2022-12-01T19:38:39.777Z,15.25
2022-12-01T19:41:07.451Z,15.15
2022-12-01T19:43:35.386Z,16.40
2022-12-01T19:46:13.786Z,17.05
2022-12-01T19:48:41.218Z,14.95
2022-12-01T19:51:15.108Z,15.20
2022-12-01T19:53:41.635Z,15.60
2022-12-01T19:56:08.173Z,15.30
2022-12-01T19:58:34.879Z,15.23
2022-12-01T20:01:06.661Z,15.93
2022-12-01T20:03:33.568Z,16.10
2022-12-01T20:06:12.850Z,15.63
2022-12-01T20:08:39.564Z,15.70
2022-12-01T20:11:07.109Z,15.63
2022-12-01T20:13:35.604Z,16.35
2022-12-01T20:16:09.530Z,15.77
2022-12-01T20:18:36.625Z,16.20
2022-12-01T20:21:15.885Z,15.73
2022-12-01T20:23:47.271Z,15.18
2022-12-01T20:26:14.795Z,16.20
2022-12-01T20:28:41.866Z,16.02
2022-12-01T20:31:11.912Z,15.88
2022-12-01T20:33:39.593Z,15.70
2022-12-01T20:36:07.034Z,15.35
2022-12-01T20:38:34.628Z,16.63
2022-12-01T20:41:01.102Z,16.58
2022-12-01T20:43:28.507Z,17.05
2022-12-01T20:45:55.151Z,16.90
2022-12-01T20:48:22.066Z,17.23
2022-12-01T20:50:48.581Z,16.10
2022-12-01T20:53:15.127Z,15.93
2022-12-01T20:55:41.612Z,16.50
2022-12-01T20:58:11.442Z,16.33
2022-12-01T21:00:40.491Z,16.27
2022-12-01T21:03:07.857Z,15.65
2022-12-01T21:05:34.351Z,15.75
2022-12-01T21:08:01.667Z,17.13
2022-12-01T21:10:28.614Z,15.90
2022-12-01T21:13:21.254Z,17.15
2022-12-01T21:16:01.616Z,15.93
2022-12-01T21:18:38.698Z,17.00
2022-12-01T21:21:11.864Z,16.15
2022-12-01T21:23:38.330Z,16.05
2022-12-01T21:26:13.886Z,15.50
2022-12-01T21:28:40.449Z,15.35
2022-12-01T21:31:15.038Z,17.15
2022-12-01T21:33:42.529Z,15.60
2022-12-01T21:36:22.179Z,16.58
2022-12-01T21:38:53.449Z,16.02
2022-12-01T21:41:27.170Z,15.82
2022-12-01T21:44:02.478Z,16.05
2022-12-01T21:46:29.669Z,16.80
2022-12-01T21:48:56.164Z,15.85
2022-12-01T21:51:24.294Z,16.00
2022-12-01T21:53:53.739Z,16.23
2022-12-01T21:56:23.904Z,16.25
2022-12-01T21:58:51.665Z,15.55
2022-12-01T22:01:32.278Z,16.27
2022-12-01T22:04:02.384Z,16.55
2022-12-01T22:06:40.657Z,15.85
2022-12-01T22:09:26.458Z,16.45
2022-12-01T22:11:55.890Z,17.20
2022-12-01T22:14:32.561Z,16.40
2022-12-01T22:17:05.108Z,16.52
2022-12-01T22:19:45.496Z,15.82
2022-12-01T22:22:11.872Z,16.10
2022-12-01T22:24:47.098Z,16.77
2022-12-01T22:27:35.033Z,17.25
2022-12-01T22:30:13.686Z,16.58
2022-12-01T22:32:58.601Z,16.98
2022-12-01T22:35:29.497Z,16.88
2022-12-01T22:38:11.020Z,17.20
2022-12-01T22:40:47.414Z,16.70
2022-12-01T22:43:17.225Z,16.45
2022-12-01T22:45:47.729Z,16.88
2022-12-01T22:48:38.426Z,16.83
2022-12-01T22:51:14.099Z,17.50
2022-12-01T22:53:41.841Z,17.63
2022-12-01T22:56:30.529Z,18.10
2022-12-01T22:58:57.226Z,17.58
2022-12-01T23:01:31.787Z,16.98
2022-12-01T23:04:26.280Z,18.05
2022-12-01T23:07:02.442Z,17.63
2022-12-01T23:09:39.733Z,17.10
2022-12-01T23:12:12.062Z,17.75
2022-12-01T23:14:51.262Z,16.33
2022-12-01T23:17:25.005Z,17.83
2022-12-01T23:22:19.356Z,16.73
2022-12-01T23:24:46.159Z,17.02
2022-12-01T23:27:18.347Z,16.45
2022-12-01T23:29:44.918Z,17.33
2022-12-01T23:32:12.365Z,16.55
2022-12-01T23:34:38.906Z,17.60
2022-12-01T23:37:32.977Z,18.02
2022-12-01T23:42:26.250Z,15.95
2022-12-01T23:44:53.267Z,17.73
2022-12-01T23:47:24.145Z,16.00
2022-12-01T23:49:57.622Z,15.90
2022-12-01T23:54:55.790Z,15.82
2022-12-01T23:57:24.188Z,16.05
2022-12-01T23:59:54.514Z,14.93
